sensor_id;sensor_type;location;lat;lon;timestamp;temperature;humidity
37874;DHT22;23709;48.078;11.684;2024-01-30T05:41:45;-1.10;99.90
37874;DHT22;23709;48.078;11.684;2024-01-30T05:44:17;-1.20;99.90
37874;DHT22;23709;48.078;11.684;2024-01-30T05:46:49;-1.10;99.90
37874;DHT22;23709;48.078;11.684;2024-01-30T05:49:21;-1.00;99.90
37874;DHT22;23709;48.078;11.684;2024-01-30T05:51:54;-0.80;99.90
37874;DHT22;23709;48.078;11.684;2024-01-30T05:54:27;-0.70;99.90
37874;DHT22;23709;48.078;11.684;2024-01-30T05:57:00;-0.60;99.90
37874;DHT22;23709;48.078;11.684;2024-01-30T05:59:32;-0.60;99.90
37874;DHT22;23709;48.078;11.684;2024-01-30T06:02:05;-0.50;99.90
37874;DHT22;23709;48.078;11.684;2024-01-30T06:04:37;-0.50;99.90
37874;DHT22;23709;48.078;11.684;2024-01-30T06:07:10;-0.50;99.90
37874;DHT22;23709;48.078;11.684;2024-01-30T06:09:42;-0.60;99.90
37874;DHT22;23709;48.078;11.684;2024-01-30T06:12:15;-0.60;99.90
37874;DHT22;23709;48.078;11.684;2024-01-30T06:14:48;-0.50;99.90
37874;DHT22;23709;48.078;11.684;2024-01-30T06:17:20;-0.50;99.90
37874;DHT22;23709;48.078;11.684;2024-01-30T06:19:53;-0.50;99.90
37874;DHT22;23709;48.078;11.684;2024-01-30T06:22:25;-0.40;99.90
37874;DHT22;23709;48.078;11.684;2024-01-30T06:24:57;-0.40;99.90
37874;DHT22;23709;48.078;11.684;2024-01-30T06:27:30;-0.40;99.90
37874;DHT22;23709;48.078;11.684;2024-01-30T06:30:03;-0.30;99.90
37874;DHT22;23709;48.078;11.684;2024-01-30T06:32:35;-0.30;99.90
37874;DHT22;23709;48.078;11.684;2024-01-30T06:35:08;-0.40;99.90
37874;DHT22;23709;48.078;11.684;2024-01-30T06:37:42;0.00;99.90
37874;DHT22;23709;48.078;11.684;2024-01-30T06:40:15;0.20;99.90
37874;DHT22;23709;48.078;11.684;2024-01-30T06:42:47;0.30;99.90
37874;DHT22;23709;48.078;11.684;2024-01-30T06:45:20;0.40;99.90
37874;DHT22;23709;48.078;11.684;2024-01-30T06:47:52;0.20;99.90
37874;DHT22;23709;48.078;11.684;2024-01-30T06:50:24;0.00;99.90
37874;DHT22;23709;48.078;11.684;2024-01-30T06:52:56;-0.20;99.90
37874;DHT22;23709;48.078;11.684;2024-01-30T06:55:29;-0.30;99.90
37874;DHT22;23709;48.078;11.684;2024-01-30T06:58:01;-0.30;99.90
37874;DHT22;23709;48.078;11.684;2024-01-30T07:00:33;-0.40;99.90
37874;DHT22;23709;48.078;11.684;2024-01-30T07:03:06;-0.30;99.90
37874;DHT22;23709;48.078;11.684;2024-01-30T07:05:39;-0.30;99.90
37874;DHT22;23709;48.078;11.684;2024-01-30T07:08:11;-0.30;99.90
37874;DHT22;23709;48.078;11.684;2024-01-30T07:10:44;-0.30;99.90
37874;DHT22;23709;48.078;11.684;2024-01-30T07:13:16;-0.40;99.90
37874;DHT22;23709;48.078;11.684;2024-01-30T07:15:48;-0.30;99.90
37874;DHT22;23709;48.078;11.684;2024-01-30T07:18:21;-0.30;99.90
37874;DHT22;23709;48.078;11.684;2024-01-30T07:20:53;-0.40;99.90
37874;DHT22;23709;48.078;11.684;2024-01-30T07:23:26;-0.40;99.90
37874;DHT22;23709;48.078;11.684;2024-01-30T07:25:59;-0.30;99.90
37874;DHT22;23709;48.078;11.684;2024-01-30T15:37:06;12.00;70.50
37874;DHT22;23709;48.078;11.684;2024-01-30T15:39:41;11.40;72.00
37874;DHT22;23709;48.078;11.684;2024-01-30T15:42:13;11.30;73.90
37874;DHT22;23709;48.078;11.684;2024-01-30T15:44:45;11.10;76.40
37874;DHT22;23709;48.078;11.684;2024-01-30T15:47:18;10.90;76.20
37874;DHT22;23709;48.078;11.684;2024-01-30T15:49:51;10.80;76.20
37874;DHT22;23709;48.078;11.684;2024-01-30T15:52:23;10.60;76.10
37874;DHT22;23709;48.078;11.684;2024-01-30T15:54:55;10.50;76.30
37874;DHT22;23709;48.078;11.684;2024-01-30T15:57:28;10.50;77.10
37874;DHT22;23709;48.078;11.684;2024-01-30T16:00:01;10.30;77.50
37874;DHT22;23709;48.078;11.684;2024-01-30T16:02:42;10.20;76.50
37874;DHT22;23709;48.078;11.684;2024-01-30T16:05:21;10.00;77.20
37874;DHT22;23709;48.078;11.684;2024-01-30T16:07:54;9.90;79.00
37874;DHT22;23709;48.078;11.684;2024-01-30T16:10:27;9.80;79.60
37874;DHT22;23709;48.078;11.684;2024-01-30T16:13:03;9.70;80.60
37874;DHT22;23709;48.078;11.684;2024-01-30T16:15:37;9.50;80.90
37874;DHT22;23709;48.078;11.684;2024-01-30T16:18:16;9.40;81.80
37874;DHT22;23709;48.078;11.684;2024-01-30T16:20:49;9.30;82.00
37874;DHT22;23709;48.078;11.684;2024-01-30T16:23:22;9.10;82.50
37874;DHT22;23709;48.078;11.684;2024-01-30T16:25:54;8.90;83.70
37874;DHT22;23709;48.078;11.684;2024-01-30T16:28:27;8.70;84.70
37874;DHT22;23709;48.078;11.684;2024-01-30T16:31:00;8.50;85.20
37874;DHT22;23709;48.078;11.684;2024-01-30T16:33:40;8.40;85.40
37874;DHT22;23709;48.078;11.684;2024-01-30T16:36:19;8.40;86.50
37874;DHT22;23709;48.078;11.684;2024-01-30T16:38:57;8.30;86.50
37874;DHT22;23709;48.078;11.684;2024-01-30T16:41:41;8.30;86.70
37874;DHT22;23709;48.078;11.684;2024-01-30T16:44:19;8.20;87.00
37874;DHT22;23709;48.078;11.684;2024-01-30T16:46:57;8.10;87.90
37874;DHT22;23709;48.078;11.684;2024-01-30T16:49:34;8.00;88.40
37874;DHT22;23709;48.078;11.684;2024-01-30T16:52:13;7.90;88.60
37874;DHT22;23709;48.078;11.684;2024-01-30T16:54:49;7.70;89.80
37874;DHT22;23709;48.078;11.684;2024-01-30T16:57:21;7.50;90.20
37874;DHT22;23709;48.078;11.684;2024-01-30T16:59:54;7.30;90.70
37874;DHT22;23709;48.078;11.684;2024-01-30T17:02:32;7.20;91.10
37874;DHT22;23709;48.078;11.684;2024-01-30T17:05:09;7.20;91.50
37874;DHT22;23709;48.078;11.684;2024-01-30T17:07:57;7.10;91.90
37874;DHT22;23709;48.078;11.684;2024-01-30T17:10:30;7.00;92.30
37874;DHT22;23709;48.078;11.684;2024-01-30T17:13:11;6.90;92.50
37874;DHT22;23709;48.078;11.684;2024-01-30T17:15:47;6.80;93.20
37874;DHT22;23709;48.078;11.684;2024-01-30T17:18:21;6.60;94.10
37874;DHT22;23709;48.078;11.684;2024-01-30T17:20:55;6.50;94.40
37874;DHT22;23709;48.078;11.684;2024-01-30T17:23:30;6.50;94.60
37874;DHT22;23709;48.078;11.684;2024-01-30T17:26:06;6.50;94.90
37874;DHT22;23709;48.078;11.684;2024-01-30T17:28:45;6.40;95.30
37874;DHT22;23709;48.078;11.684;2024-01-30T17:31:22;6.30;96.00
37874;DHT22;23709;48.078;11.684;2024-01-30T17:33:58;6.30;96.40
37874;DHT22;23709;48.078;11.684;2024-01-30T17:36:32;6.30;96.70
37874;DHT22;23709;48.078;11.684;2024-01-30T17:39:11;6.20;97.20
37874;DHT22;23709;48.078;11.684;2024-01-30T17:41:44;6.30;97.40
37874;DHT22;23709;48.078;11.684;2024-01-30T17:44:23;6.30;97.30
37874;DHT22;23709;48.078;11.684;2024-01-30T17:46:57;6.30;97.80
37874;DHT22;23709;48.078;11.684;2024-01-30T17:49:33;6.40;98.20
37874;DHT22;23709;48.078;11.684;2024-01-30T17:52:11;6.30;98.20
37874;DHT22;23709;48.078;11.684;2024-01-30T17:54:44;6.30;99.90
37874;DHT22;23709;48.078;11.684;2024-01-30T17:57:17;6.10;99.90
37874;DHT22;23709;48.078;11.684;2024-01-30T17:59:50;5.90;99.90
37874;DHT22;23709;48.078;11.684;2024-01-30T18:02:23;5.90;99.90
37874;DHT22;23709;48.078;11.684;2024-01-30T18:04:57;5.90;99.90
37874;DHT22;23709;48.078;11.684;2024-01-30T18:07:32;5.80;99.90
37874;DHT22;23709;48.078;11.684;2024-01-30T18:10:08;5.80;99.90
37874;DHT22;23709;48.078;11.684;2024-01-30T18:12:41;5.60;99.90
37874;DHT22;23709;48.078;11.684;2024-01-30T18:15:14;5.40;99.90
37874;DHT22;23709;48.078;11.684;2024-01-30T18:17:46;5.30;99.90
37874;DHT22;23709;48.078;11.684;2024-01-30T18:20:19;5.20;99.90
37874;DHT22;23709;48.078;11.684;2024-01-30T18:22:51;5.20;99.90
37874;DHT22;23709;48.078;11.684;2024-01-30T18:25:24;5.00;99.90
37874;DHT22;23709;48.078;11.684;2024-01-30T18:27:56;5.00;99.90
37874;DHT22;23709;48.078;11.684;2024-01-30T18:30:28;4.80;99.90
37874;DHT22;23709;48.078;11.684;2024-01-30T18:33:01;4.90;99.90
37874;DHT22;23709;48.078;11.684;2024-01-30T18:35:35;4.80;99.90
37874;DHT22;23709;48.078;11.684;2024-01-30T18:38:07;4.80;99.90
37874;DHT22;23709;48.078;11.684;2024-01-30T18:40:39;4.80;99.90
37874;DHT22;23709;48.078;11.684;2024-01-30T18:43:12;4.90;99.90
37874;DHT22;23709;48.078;11.684;2024-01-30T18:45:51;5.00;99.90
37874;DHT22;23709;48.078;11.684;2024-01-30T18:48:25;5.00;99.90
37874;DHT22;23709;48.078;11.684;2024-01-30T18:50:58;5.10;99.90
37874;DHT22;23709;48.078;11.684;2024-01-30T18:53:32;5.10;99.90
37874;DHT22;23709;48.078;11.684;2024-01-30T18:56:05;5.20;99.90
37874;DHT22;23709;48.078;11.684;2024-01-30T18:58:37;5.30;99.90
37874;DHT22;23709;48.078;11.684;2024-01-30T19:01:10;5.30;99.90
37874;DHT22;23709;48.078;11.684;2024-01-30T19:03:43;5.20;99.90
37874;DHT22;23709;48.078;11.684;2024-01-30T19:06:15;5.20;99.90
37874;DHT22;23709;48.078;11.684;2024-01-30T19:08:47;5.20;99.90
37874;DHT22;23709;48.078;11.684;2024-01-30T19:11:20;5.20;99.90
37874;DHT22;23709;48.078;11.684;2024-01-30T19:13:53;5.10;99.90
37874;DHT22;23709;48.078;11.684;2024-01-30T19:16:25;5.10;99.90
37874;DHT22;23709;48.078;11.684;2024-01-30T19:18:58;5.00;99.90
37874;DHT22;23709;48.078;11.684;2024-01-30T19:21:30;4.90;99.90
37874;DHT22;23709;48.078;11.684;2024-01-30T19:24:04;5.00;99.90
37874;DHT22;23709;48.078;11.684;2024-01-30T19:26:36;4.90;99.90
37874;DHT22;23709;48.078;11.684;2024-01-30T19:29:10;4.90;99.90
37874;DHT22;23709;48.078;11.684;2024-01-30T19:31:43;4.90;99.90
37874;DHT22;23709;48.078;11.684;2024-01-30T19:34:21;4.80;99.90
37874;DHT22;23709;48.078;11.684;2024-01-30T19:36:57;4.90;99.90
37874;DHT22;23709;48.078;11.684;2024-01-30T19:39:30;5.00;99.90
37874;DHT22;23709;48.078;11.684;2024-01-30T19:42:02;5.10;99.90
37874;DHT22;23709;48.078;11.684;2024-01-30T19:44:34;5.10;99.90
37874;DHT22;23709;48.078;11.684;2024-01-30T19:47:07;5.10;99.90
37874;DHT22;23709;48.078;11.684;2024-01-30T19:49:41;5.10;99.90
37874;DHT22;23709;48.078;11.684;2024-01-30T19:52:13;5.00;99.90
37874;DHT22;23709;48.078;11.684;2024-01-30T19:54:46;5.00;99.90
37874;DHT22;23709;48.078;11.684;2024-01-30T19:57:18;4.90;99.90
37874;DHT22;23709;48.078;11.684;2024-01-30T19:59:52;4.90;99.90
37874;DHT22;23709;48.078;11.684;2024-01-30T20:02:25;4.90;99.90
37874;DHT22;23709;48.078;11.684;2024-01-30T20:04:57;4.90;99.90
37874;DHT22;23709;48.078;11.684;2024-01-30T20:07:31;4.80;99.90
37874;DHT22;23709;48.078;11.684;2024-01-30T20:10:04;4.80;99.90
37874;DHT22;23709;48.078;11.684;2024-01-30T20:12:36;4.80;99.90
37874;DHT22;23709;48.078;11.684;2024-01-30T20:15:13;4.60;99.90
37874;DHT22;23709;48.078;11.684;2024-01-30T20:17:47;4.60;99.90
37874;DHT22;23709;48.078;11.684;2024-01-30T20:20:19;4.50;99.90
37874;DHT22;23709;48.078;11.684;2024-01-30T20:22:52;4.50;99.90
37874;DHT22;23709;48.078;11.684;2024-01-30T20:25:24;4.60;99.90
37874;DHT22;23709;48.078;11.684;2024-01-30T20:27:57;4.50;99.90
37874;DHT22;23709;48.078;11.684;2024-01-30T20:30:30;4.50;99.90
37874;DHT22;23709;48.078;11.684;2024-01-30T20:33:02;4.50;99.90
37874;DHT22;23709;48.078;11.684;2024-01-30T20:35:35;4.50;99.90
37874;DHT22;23709;48.078;11.684;2024-01-30T20:38:07;4.50;99.90
37874;DHT22;23709;48.078;11.684;2024-01-30T20:40:39;4.60;99.90
37874;DHT22;23709;48.078;11.684;2024-01-30T20:43:11;4.70;99.90
37874;DHT22;23709;48.078;11.684;2024-01-30T20:45:44;4.70;99.90
37874;DHT22;23709;48.078;11.684;2024-01-30T20:48:16;4.60;99.90
37874;DHT22;23709;48.078;11.684;2024-01-30T20:50:49;4.60;99.90
37874;DHT22;23709;48.078;11.684;2024-01-30T20:53:22;4.50;99.90
37874;DHT22;23709;48.078;11.684;2024-01-30T20:55:54;4.40;99.90
37874;DHT22;23709;48.078;11.684;2024-01-30T20:58:26;4.30;99.90
37874;DHT22;23709;48.078;11.684;2024-01-30T21:01:00;4.10;99.90
37874;DHT22;23709;48.078;11.684;2024-01-30T21:03:33;4.20;99.90
37874;DHT22;23709;48.078;11.684;2024-01-30T21:06:06;4.10;99.90
37874;DHT22;23709;48.078;11.684;2024-01-30T21:08:40;4.00;99.90
37874;DHT22;23709;48.078;11.684;2024-01-30T21:11:14;4.00;99.90
37874;DHT22;23709;48.078;11.684;2024-01-30T21:13:46;4.10;99.90
37874;DHT22;23709;48.078;11.684;2024-01-30T21:16:18;4.20;99.90
37874;DHT22;23709;48.078;11.684;2024-01-30T21:18:51;4.20;99.90
